sensor_id;sensor_type;location;lat;lon;timestamp;P1;durP1;ratioP1;P2;durP2;ratioP2
73168;SDS011;61379;59.732;30.468;2023-06-04T00:02:14;6.90;;;6.35;;
73168;SDS011;61379;59.732;30.468;2023-06-04T00:04:41;7.25;;;6.72;;
73168;SDS011;61379;59.732;30.468;2023-06-04T00:07:07;7.38;;;6.93;;
73168;SDS011;61379;59.732;30.468;2023-06-04T00:09:34;7.35;;;6.75;;
73168;SDS011;61379;59.732;30.468;2023-06-04T00:12:01;8.18;;;7.47;;
73168;SDS011;61379;59.732;30.468;2023-06-04T00:14:28;6.40;;;5.85;;
73168;SDS011;61379;59.732;30.468;2023-06-04T00:16:55;8.00;;;7.15;;
73168;SDS011;61379;59.732;30.468;2023-06-04T00:19:23;7.70;;;7.00;;
73168;SDS011;61379;59.732;30.468;2023-06-04T00:21:50;7.30;;;6.57;;
73168;SDS011;61379;59.732;30.468;2023-06-04T00:24:16;7.40;;;6.90;;
73168;SDS011;61379;59.732;30.468;2023-06-04T00:26:43;7.65;;;7.03;;
73168;SDS011;61379;59.732;30.468;2023-06-04T00:29:10;7.80;;;7.10;;
73168;SDS011;61379;59.732;30.468;2023-06-04T00:31:37;8.00;;;7.50;;
73168;SDS011;61379;59.732;30.468;2023-06-04T00:34:04;8.20;;;7.45;;
73168;SDS011;61379;59.732;30.468;2023-06-04T00:36:32;8.35;;;7.65;;
73168;SDS011;61379;59.732;30.468;2023-06-04T00:38:59;7.93;;;7.32;;
73168;SDS011;61379;59.732;30.468;2023-06-04T00:41:26;7.30;;;6.45;;
73168;SDS011;61379;59.732;30.468;2023-06-04T00:43:52;7.82;;;7.20;;
73168;SDS011;61379;59.732;30.468;2023-06-04T00:46:22;6.10;;;5.63;;
73168;SDS011;61379;59.732;30.468;2023-06-04T00:48:50;7.50;;;7.00;;
73168;SDS011;61379;59.732;30.468;2023-06-04T00:51:17;7.30;;;6.80;;
73168;SDS011;61379;59.732;30.468;2023-06-04T00:53:45;7.18;;;6.57;;
73168;SDS011;61379;59.732;30.468;2023-06-04T00:56:12;7.35;;;6.75;;
73168;SDS011;61379;59.732;30.468;2023-06-04T00:58:39;6.80;;;6.30;;
73168;SDS011;61379;59.732;30.468;2023-06-04T01:01:07;7.00;;;6.40;;
73168;SDS011;61379;59.732;30.468;2023-06-04T01:03:38;7.10;;;6.45;;
73168;SDS011;61379;59.732;30.468;2023-06-04T01:06:08;5.28;;;4.88;;
73168;SDS011;61379;59.732;30.468;2023-06-04T01:08:39;7.35;;;6.75;;
73168;SDS011;61379;59.732;30.468;2023-06-04T01:11:09;7.00;;;5.63;;
73168;SDS011;61379;59.732;30.468;2023-06-04T01:13:36;7.28;;;6.68;;
73168;SDS011;61379;59.732;30.468;2023-06-04T01:16:03;7.22;;;6.72;;
73168;SDS011;61379;59.732;30.468;2023-06-04T01:18:30;6.80;;;6.30;;
73168;SDS011;61379;59.732;30.468;2023-06-04T01:20:59;7.45;;;6.95;;
73168;SDS011;61379;59.732;30.468;2023-06-04T01:23:32;7.95;;;7.15;;
73168;SDS011;61379;59.732;30.468;2023-06-04T01:26:00;6.68;;;6.18;;
73168;SDS011;61379;59.732;30.468;2023-06-04T01:28:30;8.88;;;6.90;;
73168;SDS011;61379;59.732;30.468;2023-06-04T01:30:59;7.13;;;6.63;;
73168;SDS011;61379;59.732;30.468;2023-06-04T01:33:27;7.43;;;6.35;;
73168;SDS011;61379;59.732;30.468;2023-06-04T01:35:54;7.25;;;6.65;;
73168;SDS011;61379;59.732;30.468;2023-06-04T01:38:21;7.57;;;6.63;;
73168;SDS011;61379;59.732;30.468;2023-06-04T01:40:48;6.50;;;6.10;;
73168;SDS011;61379;59.732;30.468;2023-06-04T01:43:16;6.75;;;6.35;;
73168;SDS011;61379;59.732;30.468;2023-06-04T01:45:44;5.47;;;4.97;;
73168;SDS011;61379;59.732;30.468;2023-06-04T01:48:11;8.38;;;6.47;;
73168;SDS011;61379;59.732;30.468;2023-06-04T01:50:38;7.05;;;6.32;;
73168;SDS011;61379;59.732;30.468;2023-06-04T01:53:05;6.85;;;6.28;;
73168;SDS011;61379;59.732;30.468;2023-06-04T01:55:32;7.13;;;6.55;;
73168;SDS011;61379;59.732;30.468;2023-06-04T01:57:59;6.63;;;6.13;;
73168;SDS011;61379;59.732;30.468;2023-06-04T02:00:26;6.93;;;6.43;;
73168;SDS011;61379;59.732;30.468;2023-06-04T02:02:55;6.90;;;6.47;;
73168;SDS011;61379;59.732;30.468;2023-06-04T02:05:22;6.88;;;6.38;;
73168;SDS011;61379;59.732;30.468;2023-06-04T02:07:49;6.78;;;6.28;;
73168;SDS011;61379;59.732;30.468;2023-06-04T02:10:17;6.80;;;6.30;;
73168;SDS011;61379;59.732;30.468;2023-06-04T02:12:53;6.22;;;5.47;;
73168;SDS011;61379;59.732;30.468;2023-06-04T02:15:21;5.85;;;5.32;;
73168;SDS011;61379;59.732;30.468;2023-06-04T02:17:48;6.60;;;6.10;;
73168;SDS011;61379;59.732;30.468;2023-06-04T02:20:17;7.45;;;6.82;;
73168;SDS011;61379;59.732;30.468;2023-06-04T02:22:44;6.82;;;6.35;;
73168;SDS011;61379;59.732;30.468;2023-06-04T02:25:10;7.45;;;6.95;;
73168;SDS011;61379;59.732;30.468;2023-06-04T02:27:37;8.50;;;7.80;;
73168;SDS011;61379;59.732;30.468;2023-06-04T02:30:04;8.40;;;7.70;;
73168;SDS011;61379;59.732;30.468;2023-06-04T02:32:32;7.90;;;7.40;;
73168;SDS011;61379;59.732;30.468;2023-06-04T02:35:01;8.27;;;7.63;;
73168;SDS011;61379;59.732;30.468;2023-06-04T02:37:30;7.70;;;7.10;;
73168;SDS011;61379;59.732;30.468;2023-06-04T02:39:57;7.57;;;6.97;;
73168;SDS011;61379;59.732;30.468;2023-06-04T02:42:24;8.20;;;7.68;;
73168;SDS011;61379;59.732;30.468;2023-06-04T02:44:50;7.25;;;6.68;;
73168;SDS011;61379;59.732;30.468;2023-06-04T02:47:17;9.00;;;8.35;;
73168;SDS011;61379;59.732;30.468;2023-06-04T02:49:45;7.25;;;6.75;;
73168;SDS011;61379;59.732;30.468;2023-06-04T02:52:12;6.78;;;6.28;;
73168;SDS011;61379;59.732;30.468;2023-06-04T02:54:40;8.02;;;7.53;;
73168;SDS011;61379;59.732;30.468;2023-06-04T02:57:07;7.53;;;6.97;;
73168;SDS011;61379;59.732;30.468;2023-06-04T02:59:34;7.65;;;7.05;;
73168;SDS011;61379;59.732;30.468;2023-06-04T03:02:01;8.05;;;7.15;;
73168;SDS011;61379;59.732;30.468;2023-06-04T03:04:28;6.65;;;6.18;;
73168;SDS011;61379;59.732;30.468;2023-06-04T03:06:59;6.82;;;6.32;;
73168;SDS011;61379;59.732;30.468;2023-06-04T03:09:26;7.55;;;6.97;;
73168;SDS011;61379;59.732;30.468;2023-06-04T03:11:54;6.95;;;6.40;;
73168;SDS011;61379;59.732;30.468;2023-06-04T03:14:21;6.70;;;6.05;;
73168;SDS011;61379;59.732;30.468;2023-06-04T03:16:48;6.47;;;5.88;;
73168;SDS011;61379;59.732;30.468;2023-06-04T03:19:17;6.35;;;5.65;;
73168;SDS011;61379;59.732;30.468;2023-06-04T03:21:44;6.57;;;6.13;;
73168;SDS011;61379;59.732;30.468;2023-06-04T03:24:15;5.72;;;5.22;;
73168;SDS011;61379;59.732;30.468;2023-06-04T03:26:42;6.22;;;5.78;;
73168;SDS011;61379;59.732;30.468;2023-06-04T03:29:10;6.40;;;5.90;;
73168;SDS011;61379;59.732;30.468;2023-06-04T03:31:37;7.13;;;6.53;;
73168;SDS011;61379;59.732;30.468;2023-06-04T03:34:04;6.70;;;6.30;;
73168;SDS011;61379;59.732;30.468;2023-06-04T03:36:31;7.95;;;7.45;;
73168;SDS011;61379;59.732;30.468;2023-06-04T03:38:57;6.43;;;6.03;;
73168;SDS011;61379;59.732;30.468;2023-06-04T03:41:24;6.20;;;5.72;;
73168;SDS011;61379;59.732;30.468;2023-06-04T03:43:52;6.13;;;5.63;;
73168;SDS011;61379;59.732;30.468;2023-06-04T03:46:20;6.53;;;5.93;;
73168;SDS011;61379;59.732;30.468;2023-06-04T03:48:47;6.68;;;6.18;;
73168;SDS011;61379;59.732;30.468;2023-06-04T03:51:13;6.93;;;6.25;;
73168;SDS011;61379;59.732;30.468;2023-06-04T03:53:41;6.07;;;5.60;;
73168;SDS011;61379;59.732;30.468;2023-06-04T03:56:08;6.20;;;5.70;;
73168;SDS011;61379;59.732;30.468;2023-06-04T03:58:34;6.78;;;6.20;;
73168;SDS011;61379;59.732;30.468;2023-06-04T04:01:01;7.88;;;7.28;;
73168;SDS011;61379;59.732;30.468;2023-06-04T04:03:31;6.65;;;6.25;;
73168;SDS011;61379;59.732;30.468;2023-06-04T04:05:58;6.40;;;5.90;;
73168;SDS011;61379;59.732;30.468;2023-06-04T04:08:25;7.50;;;6.90;;
73168;SDS011;61379;59.732;30.468;2023-06-04T04:10:56;7.88;;;7.38;;
73168;SDS011;61379;59.732;30.468;2023-06-04T04:13:23;7.75;;;7.15;;
73168;SDS011;61379;59.732;30.468;2023-06-04T04:15:50;8.07;;;7.38;;
73168;SDS011;61379;59.732;30.468;2023-06-04T04:18:17;7.60;;;7.10;;
73168;SDS011;61379;59.732;30.468;2023-06-04T04:20:46;7.80;;;7.10;;
73168;SDS011;61379;59.732;30.468;2023-06-04T04:23:13;8.80;;;8.18;;
73168;SDS011;61379;59.732;30.468;2023-06-04T04:25:40;8.25;;;7.65;;
73168;SDS011;61379;59.732;30.468;2023-06-04T04:28:09;8.73;;;8.02;;
73168;SDS011;61379;59.732;30.468;2023-06-04T04:30:36;8.38;;;7.72;;
73168;SDS011;61379;59.732;30.468;2023-06-04T04:33:03;7.85;;;7.35;;
73168;SDS011;61379;59.732;30.468;2023-06-04T04:35:30;8.23;;;7.72;;
73168;SDS011;61379;59.732;30.468;2023-06-04T04:37:59;8.05;;;7.45;;
73168;SDS011;61379;59.732;30.468;2023-06-04T04:40:28;8.25;;;7.65;;
73168;SDS011;61379;59.732;30.468;2023-06-04T04:42:55;7.95;;;7.35;;
73168;SDS011;61379;59.732;30.468;2023-06-04T04:45:22;10.25;;;9.45;;
73168;SDS011;61379;59.732;30.468;2023-06-04T04:47:49;7.47;;;6.68;;
73168;SDS011;61379;59.732;30.468;2023-06-04T04:50:16;8.10;;;7.30;;
73168;SDS011;61379;59.732;30.468;2023-06-04T04:52:42;8.80;;;7.97;;
73168;SDS011;61379;59.732;30.468;2023-06-04T04:55:11;8.73;;;7.93;;
73168;SDS011;61379;59.732;30.468;2023-06-04T04:57:38;7.50;;;6.80;;
73168;SDS011;61379;59.732;30.468;2023-06-04T05:00:05;7.32;;;6.63;;
73168;SDS011;61379;59.732;30.468;2023-06-04T05:02:34;8.93;;;8.20;;
73168;SDS011;61379;59.732;30.468;2023-06-04T05:05:01;8.40;;;7.70;;
73168;SDS011;61379;59.732;30.468;2023-06-04T05:07:28;7.40;;;6.90;;
73168;SDS011;61379;59.732;30.468;2023-06-04T05:09:55;7.90;;;7.10;;
73168;SDS011;61379;59.732;30.468;2023-06-04T05:12:26;8.98;;;7.85;;
73168;SDS011;61379;59.732;30.468;2023-06-04T05:14:52;10.10;;;9.23;;
73168;SDS011;61379;59.732;30.468;2023-06-04T05:17:19;8.65;;;8.05;;
73168;SDS011;61379;59.732;30.468;2023-06-04T05:19:55;10.60;;;9.80;;
73168;SDS011;61379;59.732;30.468;2023-06-04T05:22:30;8.95;;;8.30;;
73168;SDS011;61379;59.732;30.468;2023-06-04T05:24:58;10.32;;;9.63;;
73168;SDS011;61379;59.732;30.468;2023-06-04T05:27:27;9.27;;;8.30;;
73168;SDS011;61379;59.732;30.468;2023-06-04T05:29:53;10.00;;;9.23;;
73168;SDS011;61379;59.732;30.468;2023-06-04T05:32:20;9.63;;;8.93;;
73168;SDS011;61379;59.732;30.468;2023-06-04T05:34:49;9.50;;;8.60;;
73168;SDS011;61379;59.732;30.468;2023-06-04T05:37:16;8.63;;;7.85;;
73168;SDS011;61379;59.732;30.468;2023-06-04T05:39:42;9.30;;;8.40;;
73168;SDS011;61379;59.732;30.468;2023-06-04T05:42:09;8.88;;;8.18;;
73168;SDS011;61379;59.732;30.468;2023-06-04T05:44:38;9.00;;;7.65;;
73168;SDS011;61379;59.732;30.468;2023-06-04T05:47:05;6.97;;;6.38;;
73168;SDS011;61379;59.732;30.468;2023-06-04T05:49:33;9.38;;;8.68;;
73168;SDS011;61379;59.732;30.468;2023-06-04T05:52:00;8.57;;;7.75;;
73168;SDS011;61379;59.732;30.468;2023-06-04T05:54:28;6.40;;;5.85;;
73168;SDS011;61379;59.732;30.468;2023-06-04T05:56:55;8.88;;;7.57;;
73168;SDS011;61379;59.732;30.468;2023-06-04T05:59:22;8.20;;;7.60;;
73168;SDS011;61379;59.732;30.468;2023-06-04T06:01:50;7.53;;;6.85;;
73168;SDS011;61379;59.732;30.468;2023-06-04T06:04:17;8.48;;;7.78;;
73168;SDS011;61379;59.732;30.468;2023-06-04T06:06:44;7.80;;;7.10;;
73168;SDS011;61379;59.732;30.468;2023-06-04T06:09:13;8.07;;;7.38;;
73168;SDS011;61379;59.732;30.468;2023-06-04T06:11:40;7.68;;;7.07;;
73168;SDS011;61379;59.732;30.468;2023-06-04T06:14:07;7.32;;;6.72;;
73168;SDS011;61379;59.732;30.468;2023-06-04T06:16:34;8.10;;;7.40;;
73168;SDS011;61379;59.732;30.468;2023-06-04T06:19:02;8.75;;;8.00;;
73168;SDS011;61379;59.732;30.468;2023-06-04T06:21:29;8.18;;;7.55;;
73168;SDS011;61379;59.732;30.468;2023-06-04T06:23:56;8.90;;;8.25;;
73168;SDS011;61379;59.732;30.468;2023-06-04T06:26:22;9.00;;;8.40;;
73168;SDS011;61379;59.732;30.468;2023-06-04T06:28:50;8.85;;;8.25;;
73168;SDS011;61379;59.732;30.468;2023-06-04T06:31:17;9.43;;;8.57;;
73168;SDS011;61379;59.732;30.468;2023-06-04T06:33:43;8.18;;;7.50;;
73168;SDS011;61379;59.732;30.468;2023-06-04T06:36:12;8.70;;;7.97;;
73168;SDS011;61379;59.732;30.468;2023-06-04T06:38:39;9.07;;;8.48;;
73168;SDS011;61379;59.732;30.468;2023-06-04T06:41:06;8.88;;;8.18;;
73168;SDS011;61379;59.732;30.468;2023-06-04T06:43:33;8.70;;;8.10;;
73168;SDS011;61379;59.732;30.468;2023-06-04T06:46:00;9.52;;;8.32;;
73168;SDS011;61379;59.732;30.468;2023-06-04T06:48:27;8.15;;;7.55;;
73168;SDS011;61379;59.732;30.468;2023-06-04T06:50:53;8.40;;;7.78;;
73168;SDS011;61379;59.732;30.468;2023-06-04T06:53:21;8.38;;;7.75;;
73168;SDS011;61379;59.732;30.468;2023-06-04T06:55:48;8.68;;;8.02;;
73168;SDS011;61379;59.732;30.468;2023-06-04T06:58:15;9.43;;;8.75;;
73168;SDS011;61379;59.732;30.468;2023-06-04T07:00:42;9.02;;;8.43;;
73168;SDS011;61379;59.732;30.468;2023-06-04T07:03:08;8.75;;;7.97;;
73168;SDS011;61379;59.732;30.468;2023-06-04T07:05:35;9.18;;;8.38;;
73168;SDS011;61379;59.732;30.468;2023-06-04T07:08:02;8.52;;;7.88;;
73168;SDS011;61379;59.732;30.468;2023-06-04T07:10:30;8.98;;;8.27;;
73168;SDS011;61379;59.732;30.468;2023-06-04T07:12:59;8.50;;;7.90;;
73168;SDS011;61379;59.732;30.468;2023-06-04T07:15:26;8.48;;;7.78;;
73168;SDS011;61379;59.732;30.468;2023-06-04T07:17:53;8.98;;;8.27;;
73168;SDS011;61379;59.732;30.468;2023-06-04T07:20:20;9.25;;;8.45;;
73168;SDS011;61379;59.732;30.468;2023-06-04T07:22:47;8.35;;;7.68;;
73168;SDS011;61379;59.732;30.468;2023-06-04T07:25:13;8.50;;;7.90;;
73168;SDS011;61379;59.732;30.468;2023-06-04T07:27:42;6.60;;;6.10;;
73168;SDS011;61379;59.732;30.468;2023-06-04T07:30:09;8.52;;;7.80;;
73168;SDS011;61379;59.732;30.468;2023-06-04T07:32:36;8.45;;;7.75;;
73168;SDS011;61379;59.732;30.468;2023-06-04T07:35:03;7.82;;;7.32;;
73168;SDS011;61379;59.732;30.468;2023-06-04T07:37:30;8.52;;;7.70;;
73168;SDS011;61379;59.732;30.468;2023-06-04T07:39:57;7.53;;;7.00;;
73168;SDS011;61379;59.732;30.468;2023-06-04T07:42:24;9.70;;;8.30;;
73168;SDS011;61379;59.732;30.468;2023-06-04T07:44:52;9.65;;;8.95;;
73168;SDS011;61379;59.732;30.468;2023-06-04T07:47:20;9.85;;;9.02;;
73168;SDS011;61379;59.732;30.468;2023-06-04T07:49:47;9.55;;;8.90;;
73168;SDS011;61379;59.732;30.468;2023-06-04T07:52:13;9.57;;;8.82;;
73168;SDS011;61379;59.732;30.468;2023-06-04T07:54:40;7.90;;;7.32;;
73168;SDS011;61379;59.732;30.468;2023-06-04T07:57:07;9.02;;;8.43;;
73168;SDS011;61379;59.732;30.468;2023-06-04T07:59:34;9.10;;;8.55;;
73168;SDS011;61379;59.732;30.468;2023-06-04T08:02:02;9.77;;;8.88;;
73168;SDS011;61379;59.732;30.468;2023-06-04T08:04:29;8.80;;;8.30;;
73168;SDS011;61379;59.732;30.468;2023-06-04T08:06:56;8.77;;;8.25;;
73168;SDS011;61379;59.732;30.468;2023-06-04T08:09:23;7.22;;;6.75;;
73168;SDS011;61379;59.732;30.468;2023-06-04T08:11:50;8.02;;;7.53;;
73168;SDS011;61379;59.732;30.468;2023-06-04T08:14:17;7.43;;;6.80;;
73168;SDS011;61379;59.732;30.468;2023-06-04T08:16:45;7.80;;;7.30;;
73168;SDS011;61379;59.732;30.468;2023-06-04T08:19:31;8.10;;;7.53;;
73168;SDS011;61379;59.732;30.468;2023-06-04T08:21:58;10.10;;;7.65;;
73168;SDS011;61379;59.732;30.468;2023-06-04T08:24:37;7.60;;;7.13;;
73168;SDS011;61379;59.732;30.468;2023-06-04T08:27:26;6.88;;;6.38;;
73168;SDS011;61379;59.732;30.468;2023-06-04T08:29:55;7.82;;;7.32;;
73168;SDS011;61379;59.732;30.468;2023-06-04T08:32:42;6.72;;;6.22;;
73168;SDS011;61379;59.732;30.468;2023-06-04T08:35:30;7.82;;;7.32;;
73168;SDS011;61379;59.732;30.468;2023-06-04T08:37:57;7.80;;;7.30;;
73168;SDS011;61379;59.732;30.468;2023-06-04T08:40:24;8.18;;;7.57;;
73168;SDS011;61379;59.732;30.468;2023-06-04T08:42:51;8.20;;;7.60;;
73168;SDS011;61379;59.732;30.468;2023-06-04T08:45:23;7.63;;;7.13;;
73168;SDS011;61379;59.732;30.468;2023-06-04T08:47:50;8.38;;;7.78;;
73168;SDS011;61379;59.732;30.468;2023-06-04T08:50:18;7.38;;;6.95;;
73168;SDS011;61379;59.732;30.468;2023-06-04T08:52:46;8.60;;;8.00;;
73168;SDS011;61379;59.732;30.468;2023-06-04T08:55:13;8.18;;;7.63;;
73168;SDS011;61379;59.732;30.468;2023-06-04T08:57:40;8.07;;;7.57;;
73168;SDS011;61379;59.732;30.468;2023-06-04T09:00:07;8.10;;;7.53;;
73168;SDS011;61379;59.732;30.468;2023-06-04T09:02:35;7.80;;;7.30;;
73168;SDS011;61379;59.732;30.468;2023-06-04T09:05:03;6.40;;;5.97;;
73168;SDS011;61379;59.732;30.468;2023-06-04T09:07:30;8.05;;;7.55;;
73168;SDS011;61379;59.732;30.468;2023-06-04T09:09:58;8.00;;;7.50;;
73168;SDS011;61379;59.732;30.468;2023-06-04T09:12:25;8.00;;;7.40;;
73168;SDS011;61379;59.732;30.468;2023-06-04T09:14:52;8.18;;;7.68;;
73168;SDS011;61379;59.732;30.468;2023-06-04T09:17:22;7.90;;;7.40;;
73168;SDS011;61379;59.732;30.468;2023-06-04T09:19:49;8.60;;;7.95;;
73168;SDS011;61379;59.732;30.468;2023-06-04T09:22:16;8.55;;;7.95;;
73168;SDS011;61379;59.732;30.468;2023-06-04T09:24:43;8.30;;;7.70;;
73168;SDS011;61379;59.732;30.468;2023-06-04T09:27:14;7.90;;;7.32;;
73168;SDS011;61379;59.732;30.468;2023-06-04T09:29:48;7.63;;;7.22;;
73168;SDS011;61379;59.732;30.468;2023-06-04T09:32:20;7.85;;;7.30;;
73168;SDS011;61379;59.732;30.468;2023-06-04T09:34:46;7.47;;;6.88;;
73168;SDS011;61379;59.732;30.468;2023-06-04T09:37:14;7.38;;;6.90;;
73168;SDS011;61379;59.732;30.468;2023-06-04T09:39:41;7.93;;;7.43;;
73168;SDS011;61379;59.732;30.468;2023-06-04T09:42:08;7.93;;;7.18;;
73168;SDS011;61379;59.732;30.468;2023-06-04T09:44:43;6.93;;;6.53;;
73168;SDS011;61379;59.732;30.468;2023-06-04T09:47:11;7.40;;;6.90;;
73168;SDS011;61379;59.732;30.468;2023-06-04T09:49:40;7.13;;;6.63;;
73168;SDS011;61379;59.732;30.468;2023-06-04T09:52:07;7.60;;;7.05;;
73168;SDS011;61379;59.732;30.468;2023-06-04T09:54:35;6.32;;;5.85;;
73168;SDS011;61379;59.732;30.468;2023-06-04T09:57:01;7.15;;;6.60;;
73168;SDS011;61379;59.732;30.468;2023-06-04T09:59:30;7.20;;;6.65;;
73168;SDS011;61379;59.732;30.468;2023-06-04T10:01:59;7.70;;;7.10;;
73168;SDS011;61379;59.732;30.468;2023-06-04T10:04:26;7.32;;;6.82;;
73168;SDS011;61379;59.732;30.468;2023-06-04T10:06:54;8.00;;;7.35;;
73168;SDS011;61379;59.732;30.468;2023-06-04T10:09:20;7.97;;;7.28;;
73168;SDS011;61379;59.732;30.468;2023-06-04T10:11:50;8.30;;;7.70;;
73168;SDS011;61379;59.732;30.468;2023-06-04T10:14:19;8.23;;;7.63;;
73168;SDS011;61379;59.732;30.468;2023-06-04T10:16:48;7.97;;;7.47;;
73168;SDS011;61379;59.732;30.468;2023-06-04T10:19:17;8.43;;;7.70;;
73168;SDS011;61379;59.732;30.468;2023-06-04T10:21:44;7.80;;;7.30;;
73168;SDS011;61379;59.732;30.468;2023-06-04T10:24:12;8.13;;;7.38;;
73168;SDS011;61379;59.732;30.468;2023-06-04T10:26:39;8.27;;;7.60;;
73168;SDS011;61379;59.732;30.468;2023-06-04T10:29:06;7.90;;;7.40;;
73168;SDS011;61379;59.732;30.468;2023-06-04T10:31:32;7.65;;;7.13;;
73168;SDS011;61379;59.732;30.468;2023-06-04T10:33:59;7.65;;;7.15;;
73168;SDS011;61379;59.732;30.468;2023-06-04T10:36:28;6.45;;;5.95;;
73168;SDS011;61379;59.732;30.468;2023-06-04T10:38:55;8.07;;;7.57;;
73168;SDS011;61379;59.732;30.468;2023-06-04T10:41:22;7.53;;;7.07;;
73168;SDS011;61379;59.732;30.468;2023-06-04T10:43:50;7.95;;;7.10;;
73168;SDS011;61379;59.732;30.468;2023-06-04T10:46:18;7.78;;;7.18;;
73168;SDS011;61379;59.732;30.468;2023-06-04T10:48:46;7.68;;;7.07;;
73168;SDS011;61379;59.732;30.468;2023-06-04T10:51:13;7.47;;;6.97;;
73168;SDS011;61379;59.732;30.468;2023-06-04T10:53:41;8.13;;;7.63;;
73168;SDS011;61379;59.732;30.468;2023-06-04T10:56:08;8.07;;;7.57;;
73168;SDS011;61379;59.732;30.468;2023-06-04T10:58:34;7.78;;;7.28;;
73168;SDS011;61379;59.732;30.468;2023-06-04T11:01:01;7.63;;;7.13;;
73168;SDS011;61379;59.732;30.468;2023-06-04T11:03:34;7.95;;;7.28;;
73168;SDS011;61379;59.732;30.468;2023-06-04T11:06:01;7.53;;;6.82;;
73168;SDS011;61379;59.732;30.468;2023-06-04T11:08:28;7.13;;;6.72;;
73168;SDS011;61379;59.732;30.468;2023-06-04T11:10:58;7.55;;;7.05;;
73168;SDS011;61379;59.732;30.468;2023-06-04T11:13:24;6.25;;;5.75;;
73168;SDS011;61379;59.732;30.468;2023-06-04T11:15:52;8.45;;;7.95;;
73168;SDS011;61379;59.732;30.468;2023-06-04T11:18:19;7.85;;;7.35;;
73168;SDS011;61379;59.732;30.468;2023-06-04T11:20:46;8.18;;;7.68;;
73168;SDS011;61379;59.732;30.468;2023-06-04T11:23:13;7.90;;;7.40;;
73168;SDS011;61379;59.732;30.468;2023-06-04T11:25:40;7.63;;;7.13;;
73168;SDS011;61379;59.732;30.468;2023-06-04T11:28:13;8.48;;;7.88;;
73168;SDS011;61379;59.732;30.468;2023-06-04T11:30:40;8.07;;;7.57;;
73168;SDS011;61379;59.732;30.468;2023-06-04T11:33:07;8.30;;;7.70;;
73168;SDS011;61379;59.732;30.468;2023-06-04T11:35:39;8.45;;;7.72;;
73168;SDS011;61379;59.732;30.468;2023-06-04T11:38:06;8.60;;;8.02;;
73168;SDS011;61379;59.732;30.468;2023-06-04T11:40:33;8.35;;;7.85;;
73168;SDS011;61379;59.732;30.468;2023-06-04T11:43:00;8.85;;;8.25;;
73168;SDS011;61379;59.732;30.468;2023-06-04T11:45:29;9.35;;;8.63;;
73168;SDS011;61379;59.732;30.468;2023-06-04T11:47:56;8.02;;;7.53;;
73168;SDS011;61379;59.732;30.468;2023-06-04T11:50:25;7.82;;;7.32;;
73168;SDS011;61379;59.732;30.468;2023-06-04T11:52:52;8.30;;;7.88;;
73168;SDS011;61379;59.732;30.468;2023-06-04T11:55:20;8.32;;;7.82;;
73168;SDS011;61379;59.732;30.468;2023-06-04T11:57:47;7.97;;;7.45;;
73168;SDS011;61379;59.732;30.468;2023-06-04T12:00:14;8.35;;;7.85;;
73168;SDS011;61379;59.732;30.468;2023-06-04T12:02:53;8.38;;;7.88;;
73168;SDS011;61379;59.732;30.468;2023-06-04T12:05:21;8.25;;;7.75;;
73168;SDS011;61379;59.732;30.468;2023-06-04T12:07:49;6.90;;;6.30;;
73168;SDS011;61379;59.732;30.468;2023-06-04T12:10:16;8.02;;;7.53;;
73168;SDS011;61379;59.732;30.468;2023-06-04T12:12:43;7.72;;;7.22;;
73168;SDS011;61379;59.732;30.468;2023-06-04T12:15:10;7.10;;;6.63;;
73168;SDS011;61379;59.732;30.468;2023-06-04T12:17:37;7.20;;;6.57;;
73168;SDS011;61379;59.732;30.468;2023-06-04T12:20:06;8.02;;;7.50;;
73168;SDS011;61379;59.732;30.468;2023-06-04T12:22:43;7.45;;;6.95;;
73168;SDS011;61379;59.732;30.468;2023-06-04T12:25:11;7.90;;;7.40;;
73168;SDS011;61379;59.732;30.468;2023-06-04T12:27:45;8.65;;;8.05;;
73168;SDS011;61379;59.732;30.468;2023-06-04T12:30:13;8.30;;;7.75;;
73168;SDS011;61379;59.732;30.468;2023-06-04T12:32:41;8.23;;;7.68;;
73168;SDS011;61379;59.732;30.468;2023-06-04T12:35:10;8.93;;;8.15;;
73168;SDS011;61379;59.732;30.468;2023-06-04T12:37:37;8.85;;;8.35;;
73168;SDS011;61379;59.732;30.468;2023-06-04T12:40:05;8.70;;;8.20;;
73168;SDS011;61379;59.732;30.468;2023-06-04T12:42:32;8.15;;;7.55;;
73168;SDS011;61379;59.732;30.468;2023-06-04T12:44:59;8.43;;;7.93;;
73168;SDS011;61379;59.732;30.468;2023-06-04T12:47:25;8.95;;;8.45;;
73168;SDS011;61379;59.732;30.468;2023-06-04T12:49:52;8.40;;;7.90;;
73168;SDS011;61379;59.732;30.468;2023-06-04T12:52:20;8.88;;;8.38;;
73168;SDS011;61379;59.732;30.468;2023-06-04T12:54:47;9.70;;;9.10;;
73168;SDS011;61379;59.732;30.468;2023-06-04T12:57:14;9.52;;;8.93;;
73168;SDS011;61379;59.732;30.468;2023-06-04T12:59:41;7.20;;;6.72;;
73168;SDS011;61379;59.732;30.468;2023-06-04T13:02:07;8.60;;;8.02;;
73168;SDS011;61379;59.732;30.468;2023-06-04T13:04:35;8.60;;;8.10;;
73168;SDS011;61379;59.732;30.468;2023-06-04T13:07:01;8.75;;;8.25;;
73168;SDS011;61379;59.732;30.468;2023-06-04T13:09:29;9.13;;;8.52;;
73168;SDS011;61379;59.732;30.468;2023-06-04T13:11:57;9.05;;;8.52;;
73168;SDS011;61379;59.732;30.468;2023-06-04T13:14:24;8.82;;;8.20;;
73168;SDS011;61379;59.732;30.468;2023-06-04T13:16:51;8.57;;;8.07;;
73168;SDS011;61379;59.732;30.468;2023-06-04T13:19:18;8.60;;;8.00;;
73168;SDS011;61379;59.732;30.468;2023-06-04T13:21:46;8.10;;;7.38;;
73168;SDS011;61379;59.732;30.468;2023-06-04T13:24:12;8.40;;;7.90;;
73168;SDS011;61379;59.732;30.468;2023-06-04T13:26:41;9.38;;;8.07;;
73168;SDS011;61379;59.732;30.468;2023-06-04T13:29:07;8.30;;;7.70;;
73168;SDS011;61379;59.732;30.468;2023-06-04T13:31:34;7.13;;;6.63;;
73168;SDS011;61379;59.732;30.468;2023-06-04T13:34:01;8.43;;;7.82;;
73168;SDS011;61379;59.732;30.468;2023-06-04T13:36:28;8.68;;;8.10;;
73168;SDS011;61379;59.732;30.468;2023-06-04T13:38:55;9.18;;;8.30;;
73168;SDS011;61379;59.732;30.468;2023-06-04T13:41:22;9.13;;;8.52;;
73168;SDS011;61379;59.732;30.468;2023-06-04T13:43:50;8.60;;;8.07;;
73168;SDS011;61379;59.732;30.468;2023-06-04T13:46:16;8.93;;;8.32;;
73168;SDS011;61379;59.732;30.468;2023-06-04T13:48:43;6.78;;;6.35;;
73168;SDS011;61379;59.732;30.468;2023-06-04T13:51:10;8.20;;;7.70;;
73168;SDS011;61379;59.732;30.468;2023-06-04T13:53:37;9.00;;;8.50;;
73168;SDS011;61379;59.732;30.468;2023-06-04T13:56:04;7.88;;;7.40;;
73168;SDS011;61379;59.732;30.468;2023-06-04T13:58:31;8.30;;;7.80;;
73168;SDS011;61379;59.732;30.468;2023-06-04T14:00:59;8.35;;;7.85;;
73168;SDS011;61379;59.732;30.468;2023-06-04T14:03:25;8.68;;;8.05;;
73168;SDS011;61379;59.732;30.468;2023-06-04T14:05:52;8.73;;;8.23;;
73168;SDS011;61379;59.732;30.468;2023-06-04T14:08:19;8.93;;;8.32;;
73168;SDS011;61379;59.732;30.468;2023-06-04T14:10:46;8.63;;;8.13;;
73168;SDS011;61379;59.732;30.468;2023-06-04T14:13:13;7.68;;;7.28;;
73168;SDS011;61379;59.732;30.468;2023-06-04T14:15:39;7.03;;;6.63;;
73168;SDS011;61379;59.732;30.468;2023-06-04T14:18:08;8.52;;;8.02;;
73168;SDS011;61379;59.732;30.468;2023-06-04T14:20:34;7.97;;;7.38;;
73168;SDS011;61379;59.732;30.468;2023-06-04T14:23:01;8.20;;;7.70;;
73168;SDS011;61379;59.732;30.468;2023-06-04T14:25:28;8.63;;;8.13;;
73168;SDS011;61379;59.732;30.468;2023-06-04T14:27:55;8.82;;;8.23;;
73168;SDS011;61379;59.732;30.468;2023-06-04T14:30:22;9.10;;;8.50;;
73168;SDS011;61379;59.732;30.468;2023-06-04T14:32:48;8.45;;;7.95;;
73168;SDS011;61379;59.732;30.468;2023-06-04T14:35:17;8.68;;;8.18;;
73168;SDS011;61379;59.732;30.468;2023-06-04T14:37:44;8.98;;;8.38;;